sensor_id;sensor_type;location;lat;lon;timestamp;P1;durP1;ratioP1;P2;durP2;ratioP2
26082;SDS011;13848;49.018;12.078;2024-03-02T00:00:00;47.88;;;22.75;;
26082;SDS011;13848;49.018;12.078;2024-03-02T00:02:26;46.03;;;22.80;;
26082;SDS011;13848;49.018;12.078;2024-03-02T00:04:52;51.90;;;23.08;;
26082;SDS011;13848;49.018;12.078;2024-03-02T00:07:20;52.20;;;24.27;;
26082;SDS011;13848;49.018;12.078;2024-03-02T00:09:45;46.28;;;22.20;;
26082;SDS011;13848;49.018;12.078;2024-03-02T00:12:11;52.35;;;23.15;;
26082;SDS011;13848;49.018;12.078;2024-03-02T00:14:41;50.55;;;22.35;;
26082;SDS011;13848;49.018;12.078;2024-03-02T00:17:07;48.20;;;22.60;;
26082;SDS011;13848;49.018;12.078;2024-03-02T00:19:43;65.00;;;23.23;;
26082;SDS011;13848;49.018;12.078;2024-03-02T00:22:09;49.35;;;21.60;;
26082;SDS011;13848;49.018;12.078;2024-03-02T00:24:36;45.85;;;22.70;;
26082;SDS011;13848;49.018;12.078;2024-03-02T00:27:03;48.33;;;22.25;;
26082;SDS011;13848;49.018;12.078;2024-03-02T00:29:30;59.05;;;24.17;;
26082;SDS011;13848;49.018;12.078;2024-03-02T00:31:56;54.95;;;23.33;;
26082;SDS011;13848;49.018;12.078;2024-03-02T00:34:23;52.00;;;22.48;;
26082;SDS011;13848;49.018;12.078;2024-03-02T00:36:49;54.10;;;22.90;;
26082;SDS011;13848;49.018;12.078;2024-03-02T00:39:15;54.03;;;22.85;;
26082;SDS011;13848;49.018;12.078;2024-03-02T00:41:43;52.42;;;23.75;;
26082;SDS011;13848;49.018;12.078;2024-03-02T00:44:09;59.90;;;24.90;;
26082;SDS011;13848;49.018;12.078;2024-03-02T00:46:38;49.10;;;23.35;;
26082;SDS011;13848;49.018;12.078;2024-03-02T00:49:10;47.08;;;23.25;;
26082;SDS011;13848;49.018;12.078;2024-03-02T00:51:39;56.97;;;23.88;;
26082;SDS011;13848;49.018;12.078;2024-03-02T00:54:05;63.80;;;24.25;;
26082;SDS011;13848;49.018;12.078;2024-03-02T00:56:33;56.60;;;24.80;;
26082;SDS011;13848;49.018;12.078;2024-03-02T00:59:01;59.88;;;24.85;;
26082;SDS011;13848;49.018;12.078;2024-03-02T01:01:27;65.03;;;25.02;;
26082;SDS011;13848;49.018;12.078;2024-03-02T01:03:53;56.00;;;23.92;;
26082;SDS011;13848;49.018;12.078;2024-03-02T01:06:19;55.15;;;24.67;;
26082;SDS011;13848;49.018;12.078;2024-03-02T01:08:45;58.70;;;25.13;;
26082;SDS011;13848;49.018;12.078;2024-03-02T01:11:11;51.30;;;22.95;;
26082;SDS011;13848;49.018;12.078;2024-03-02T01:13:37;54.25;;;24.05;;
26082;SDS011;13848;49.018;12.078;2024-03-02T01:16:04;56.03;;;23.88;;
26082;SDS011;13848;49.018;12.078;2024-03-02T01:18:30;57.20;;;25.10;;
26082;SDS011;13848;49.018;12.078;2024-03-02T01:20:56;58.13;;;25.20;;
26082;SDS011;13848;49.018;12.078;2024-03-02T01:23:22;52.88;;;24.25;;
26082;SDS011;13848;49.018;12.078;2024-03-02T01:25:49;53.10;;;23.70;;
26082;SDS011;13848;49.018;12.078;2024-03-02T01:28:15;51.83;;;22.55;;
26082;SDS011;13848;49.018;12.078;2024-03-02T01:30:41;48.58;;;22.67;;
26082;SDS011;13848;49.018;12.078;2024-03-02T01:33:09;47.65;;;22.33;;
26082;SDS011;13848;49.018;12.078;2024-03-02T01:35:35;52.65;;;21.90;;
26082;SDS011;13848;49.018;12.078;2024-03-02T01:38:01;50.20;;;21.33;;
26082;SDS011;13848;49.018;12.078;2024-03-02T01:40:27;45.92;;;21.60;;
26082;SDS011;13848;49.018;12.078;2024-03-02T01:42:53;49.95;;;22.38;;
26082;SDS011;13848;49.018;12.078;2024-03-02T01:45:19;46.47;;;21.75;;
26082;SDS011;13848;49.018;12.078;2024-03-02T01:47:45;46.72;;;21.83;;
26082;SDS011;13848;49.018;12.078;2024-03-02T01:50:13;45.05;;;21.17;;
26082;SDS011;13848;49.018;12.078;2024-03-02T01:52:39;42.65;;;20.50;;
26082;SDS011;13848;49.018;12.078;2024-03-02T01:55:05;44.88;;;21.25;;
26082;SDS011;13848;49.018;12.078;2024-03-02T01:57:31;44.28;;;20.73;;
26082;SDS011;13848;49.018;12.078;2024-03-02T01:59:58;46.00;;;20.05;;
26082;SDS011;13848;49.018;12.078;2024-03-02T02:02:24;40.72;;;19.67;;
26082;SDS011;13848;49.018;12.078;2024-03-02T02:04:50;44.78;;;20.80;;
26082;SDS011;13848;49.018;12.078;2024-03-02T02:07:17;38.83;;;19.77;;
26082;SDS011;13848;49.018;12.078;2024-03-02T02:09:43;42.55;;;20.17;;
26082;SDS011;13848;49.018;12.078;2024-03-02T02:12:09;42.50;;;18.65;;
26082;SDS011;13848;49.018;12.078;2024-03-02T02:14:36;37.17;;;18.75;;
26082;SDS011;13848;49.018;12.078;2024-03-02T02:17:02;43.00;;;19.58;;
26082;SDS011;13848;49.018;12.078;2024-03-02T02:19:28;41.95;;;20.35;;
26082;SDS011;13848;49.018;12.078;2024-03-02T02:21:55;40.03;;;19.05;;
26082;SDS011;13848;49.018;12.078;2024-03-02T02:24:21;46.25;;;20.73;;
26082;SDS011;13848;49.018;12.078;2024-03-02T02:26:47;47.17;;;19.65;;
26082;SDS011;13848;49.018;12.078;2024-03-02T02:29:13;48.28;;;21.60;;
26082;SDS011;13848;49.018;12.078;2024-03-02T02:31:40;45.97;;;21.15;;
26082;SDS011;13848;49.018;12.078;2024-03-02T02:34:07;44.15;;;20.75;;
26082;SDS011;13848;49.018;12.078;2024-03-02T02:36:33;47.33;;;19.98;;
26082;SDS011;13848;49.018;12.078;2024-03-02T02:39:01;42.80;;;20.45;;
26082;SDS011;13848;49.018;12.078;2024-03-02T02:41:29;44.30;;;21.90;;
26082;SDS011;13848;49.018;12.078;2024-03-02T02:43:55;49.17;;;21.48;;
26082;SDS011;13848;49.018;12.078;2024-03-02T02:46:21;46.13;;;20.65;;
26082;SDS011;13848;49.018;12.078;2024-03-02T02:48:47;42.60;;;20.73;;
26082;SDS011;13848;49.018;12.078;2024-03-02T02:51:13;46.33;;;21.55;;
26082;SDS011;13848;49.018;12.078;2024-03-02T02:53:39;45.28;;;21.30;;
26082;SDS011;13848;49.018;12.078;2024-03-02T02:56:06;47.00;;;20.90;;
26082;SDS011;13848;49.018;12.078;2024-03-02T02:58:32;43.20;;;20.50;;
26082;SDS011;13848;49.018;12.078;2024-03-02T03:00:58;46.67;;;21.05;;
26082;SDS011;13848;49.018;12.078;2024-03-02T03:03:24;42.72;;;20.92;;
26082;SDS011;13848;49.018;12.078;2024-03-02T03:05:50;47.78;;;20.63;;
26082;SDS011;13848;49.018;12.078;2024-03-02T03:08:16;42.25;;;20.50;;
26082;SDS011;13848;49.018;12.078;2024-03-02T03:10:42;49.50;;;22.30;;
26082;SDS011;13848;49.018;12.078;2024-03-02T03:13:09;43.60;;;20.95;;
26082;SDS011;13848;49.018;12.078;2024-03-02T03:15:36;45.28;;;21.25;;
26082;SDS011;13848;49.018;12.078;2024-03-02T03:18:02;51.40;;;22.13;;
26082;SDS011;13848;49.018;12.078;2024-03-02T03:20:28;49.67;;;21.45;;
26082;SDS011;13848;49.018;12.078;2024-03-02T03:22:54;51.13;;;23.02;;
26082;SDS011;13848;49.018;12.078;2024-03-02T03:25:20;45.33;;;21.80;;
26082;SDS011;13848;49.018;12.078;2024-03-02T03:27:46;49.55;;;22.85;;
26082;SDS011;13848;49.018;12.078;2024-03-02T03:30:14;53.53;;;23.52;;
26082;SDS011;13848;49.018;12.078;2024-03-02T03:32:40;46.05;;;21.70;;
26082;SDS011;13848;49.018;12.078;2024-03-02T03:35:06;55.88;;;24.38;;
26082;SDS011;13848;49.018;12.078;2024-03-02T03:37:33;53.20;;;23.45;;
26082;SDS011;13848;49.018;12.078;2024-03-02T03:39:58;53.75;;;22.98;;
26082;SDS011;13848;49.018;12.078;2024-03-02T03:42:24;49.03;;;23.20;;
26082;SDS011;13848;49.018;12.078;2024-03-02T03:44:50;53.95;;;24.00;;
26082;SDS011;13848;49.018;12.078;2024-03-02T03:47:18;55.72;;;24.67;;
26082;SDS011;13848;49.018;12.078;2024-03-02T03:49:44;56.83;;;23.85;;
26082;SDS011;13848;49.018;12.078;2024-03-02T03:52:09;57.95;;;25.20;;
26082;SDS011;13848;49.018;12.078;2024-03-02T03:54:35;54.47;;;24.60;;
26082;SDS011;13848;49.018;12.078;2024-03-02T03:57:01;57.60;;;24.75;;
26082;SDS011;13848;49.018;12.078;2024-03-02T03:59:27;57.33;;;23.40;;
26082;SDS011;13848;49.018;12.078;2024-03-02T04:01:53;57.50;;;25.17;;
26082;SDS011;13848;49.018;12.078;2024-03-02T04:04:21;54.15;;;24.45;;
26082;SDS011;13848;49.018;12.078;2024-03-02T04:06:47;53.22;;;23.08;;
26082;SDS011;13848;49.018;12.078;2024-03-02T04:09:13;50.40;;;23.83;;
26082;SDS011;13848;49.018;12.078;2024-03-02T04:11:39;51.78;;;23.95;;
26082;SDS011;13848;49.018;12.078;2024-03-02T04:14:05;53.03;;;23.17;;
26082;SDS011;13848;49.018;12.078;2024-03-02T04:16:30;52.83;;;23.17;;
26082;SDS011;13848;49.018;12.078;2024-03-02T04:18:57;56.17;;;23.88;;
26082;SDS011;13848;49.018;12.078;2024-03-02T04:21:24;55.85;;;23.67;;
26082;SDS011;13848;49.018;12.078;2024-03-02T04:23:50;57.25;;;24.00;;
26082;SDS011;13848;49.018;12.078;2024-03-02T04:26:16;58.47;;;25.20;;
26082;SDS011;13848;49.018;12.078;2024-03-02T04:28:42;54.08;;;24.77;;
26082;SDS011;13848;49.018;12.078;2024-03-02T04:31:08;56.70;;;24.52;;
26082;SDS011;13848;49.018;12.078;2024-03-02T04:33:34;50.35;;;23.25;;
26082;SDS011;13848;49.018;12.078;2024-03-02T04:35:59;60.50;;;24.35;;
26082;SDS011;13848;49.018;12.078;2024-03-02T04:38:27;51.50;;;22.67;;
26082;SDS011;13848;49.018;12.078;2024-03-02T04:40:53;56.88;;;24.05;;
26082;SDS011;13848;49.018;12.078;2024-03-02T04:43:19;62.63;;;25.33;;
26082;SDS011;13848;49.018;12.078;2024-03-02T04:45:45;55.65;;;24.75;;
26082;SDS011;13848;49.018;12.078;2024-03-02T04:48:11;53.30;;;23.63;;
26082;SDS011;13848;49.018;12.078;2024-03-02T04:50:37;55.97;;;24.77;;
26082;SDS011;13848;49.018;12.078;2024-03-02T04:53:03;53.72;;;25.33;;
26082;SDS011;13848;49.018;12.078;2024-03-02T04:55:30;53.67;;;25.45;;
26082;SDS011;13848;49.018;12.078;2024-03-02T04:57:56;56.80;;;24.92;;
26082;SDS011;13848;49.018;12.078;2024-03-02T05:00:22;58.05;;;24.08;;
26082;SDS011;13848;49.018;12.078;2024-03-02T05:02:48;56.58;;;25.05;;
26082;SDS011;13848;49.018;12.078;2024-03-02T05:05:14;55.65;;;24.63;;
26082;SDS011;13848;49.018;12.078;2024-03-02T05:07:40;61.45;;;25.40;;
26082;SDS011;13848;49.018;12.078;2024-03-02T05:10:06;58.63;;;24.38;;
26082;SDS011;13848;49.018;12.078;2024-03-02T05:12:34;48.03;;;22.75;;
26082;SDS011;13848;49.018;12.078;2024-03-02T05:15:00;52.20;;;23.25;;
26082;SDS011;13848;49.018;12.078;2024-03-02T05:17:26;57.03;;;24.00;;
26082;SDS011;13848;49.018;12.078;2024-03-02T05:19:52;53.47;;;24.42;;
26082;SDS011;13848;49.018;12.078;2024-03-02T05:22:18;60.20;;;24.67;;
26082;SDS011;13848;49.018;12.078;2024-03-02T05:24:44;65.63;;;25.35;;
26082;SDS011;13848;49.018;12.078;2024-03-02T05:27:10;50.83;;;23.45;;
26082;SDS011;13848;49.018;12.078;2024-03-02T05:29:37;54.53;;;25.00;;
26082;SDS011;13848;49.018;12.078;2024-03-02T05:32:03;51.05;;;23.75;;
26082;SDS011;13848;49.018;12.078;2024-03-02T05:34:29;48.47;;;23.60;;
26082;SDS011;13848;49.018;12.078;2024-03-02T05:36:55;48.47;;;23.33;;
26082;SDS011;13848;49.018;12.078;2024-03-02T05:39:21;52.28;;;23.55;;
26082;SDS011;13848;49.018;12.078;2024-03-02T05:41:47;52.15;;;23.90;;
26082;SDS011;13848;49.018;12.078;2024-03-02T05:44:13;52.22;;;24.30;;
26082;SDS011;13848;49.018;12.078;2024-03-02T05:46:40;48.63;;;23.38;;
26082;SDS011;13848;49.018;12.078;2024-03-02T05:49:06;51.90;;;23.10;;
26082;SDS011;13848;49.018;12.078;2024-03-02T05:51:32;54.78;;;24.13;;
26082;SDS011;13848;49.018;12.078;2024-03-02T05:53:58;51.58;;;24.63;;
26082;SDS011;13848;49.018;12.078;2024-03-02T05:56:24;51.22;;;22.73;;
26082;SDS011;13848;49.018;12.078;2024-03-02T05:58:50;51.55;;;23.73;;
26082;SDS011;13848;49.018;12.078;2024-03-02T06:01:16;47.00;;;22.33;;
26082;SDS011;13848;49.018;12.078;2024-03-02T06:03:44;50.15;;;22.98;;
26082;SDS011;13848;49.018;12.078;2024-03-02T06:06:09;54.47;;;24.13;;
26082;SDS011;13848;49.018;12.078;2024-03-02T06:08:35;51.60;;;24.80;;
26082;SDS011;13848;49.018;12.078;2024-03-02T06:11:01;53.35;;;24.08;;
26082;SDS011;13848;49.018;12.078;2024-03-02T06:13:27;49.92;;;23.38;;
26082;SDS011;13848;49.018;12.078;2024-03-02T06:15:53;53.25;;;24.42;;
26082;SDS011;13848;49.018;12.078;2024-03-02T06:18:19;47.90;;;25.00;;
26082;SDS011;13848;49.018;12.078;2024-03-02T06:20:47;53.88;;;23.20;;
26082;SDS011;13848;49.018;12.078;2024-03-02T06:23:13;47.58;;;22.65;;
26082;SDS011;13848;49.018;12.078;2024-03-02T06:25:39;46.22;;;22.70;;
26082;SDS011;13848;49.018;12.078;2024-03-02T06:28:05;51.88;;;23.42;;
26082;SDS011;13848;49.018;12.078;2024-03-02T06:30:31;49.40;;;24.55;;
26082;SDS011;13848;49.018;12.078;2024-03-02T06:32:57;51.17;;;22.52;;
26082;SDS011;13848;49.018;12.078;2024-03-02T06:35:23;53.97;;;24.05;;
26082;SDS011;13848;49.018;12.078;2024-03-02T06:37:50;57.75;;;25.90;;
26082;SDS011;13848;49.018;12.078;2024-03-02T06:40:16;61.13;;;25.63;;
26082;SDS011;13848;49.018;12.078;2024-03-02T06:42:42;53.47;;;24.70;;
26082;SDS011;13848;49.018;12.078;2024-03-02T06:45:08;63.60;;;26.85;;
26082;SDS011;13848;49.018;12.078;2024-03-02T06:47:34;59.35;;;26.10;;
26082;SDS011;13848;49.018;12.078;2024-03-02T06:50:00;63.65;;;26.38;;
26082;SDS011;13848;49.018;12.078;2024-03-02T06:52:29;58.83;;;25.80;;
26082;SDS011;13848;49.018;12.078;2024-03-02T06:54:56;55.85;;;25.65;;
26082;SDS011;13848;49.018;12.078;2024-03-02T06:57:22;62.40;;;25.95;;
26082;SDS011;13848;49.018;12.078;2024-03-02T06:59:48;58.33;;;25.45;;
26082;SDS011;13848;49.018;12.078;2024-03-02T07:02:14;61.60;;;26.85;;
26082;SDS011;13848;49.018;12.078;2024-03-02T07:04:40;66.00;;;25.00;;
26082;SDS011;13848;49.018;12.078;2024-03-02T07:07:06;58.65;;;26.38;;
26082;SDS011;13848;49.018;12.078;2024-03-02T07:09:32;57.38;;;24.00;;
26082;SDS011;13848;49.018;12.078;2024-03-02T07:11:59;60.22;;;25.85;;
26082;SDS011;13848;49.018;12.078;2024-03-02T07:14:25;59.40;;;25.10;;
26082;SDS011;13848;49.018;12.078;2024-03-02T07:16:51;59.95;;;25.50;;
26082;SDS011;13848;49.018;12.078;2024-03-02T07:19:17;70.38;;;27.17;;
26082;SDS011;13848;49.018;12.078;2024-03-02T07:21:43;61.80;;;25.65;;
26082;SDS011;13848;49.018;12.078;2024-03-02T07:24:09;64.88;;;26.60;;
26082;SDS011;13848;49.018;12.078;2024-03-02T07:26:35;64.57;;;26.55;;
26082;SDS011;13848;49.018;12.078;2024-03-02T07:29:02;70.15;;;27.75;;
26082;SDS011;13848;49.018;12.078;2024-03-02T07:31:28;62.65;;;26.80;;
26082;SDS011;13848;49.018;12.078;2024-03-02T07:33:54;70.82;;;27.13;;
26082;SDS011;13848;49.018;12.078;2024-03-02T07:36:20;67.85;;;26.58;;
26082;SDS011;13848;49.018;12.078;2024-03-02T07:38:46;64.93;;;25.95;;
26082;SDS011;13848;49.018;12.078;2024-03-02T07:41:12;69.10;;;27.27;;
26082;SDS011;13848;49.018;12.078;2024-03-02T07:43:38;56.35;;;26.00;;
26082;SDS011;13848;49.018;12.078;2024-03-02T07:46:05;57.80;;;25.25;;
26082;SDS011;13848;49.018;12.078;2024-03-02T07:48:31;65.55;;;26.00;;
26082;SDS011;13848;49.018;12.078;2024-03-02T07:50:57;60.95;;;26.33;;
26082;SDS011;13848;49.018;12.078;2024-03-02T07:53:23;62.67;;;25.88;;
26082;SDS011;13848;49.018;12.078;2024-03-02T07:55:49;60.00;;;26.73;;
26082;SDS011;13848;49.018;12.078;2024-03-02T07:58:15;62.80;;;26.15;;
26082;SDS011;13848;49.018;12.078;2024-03-02T08:00:41;57.03;;;25.95;;
26082;SDS011;13848;49.018;12.078;2024-03-02T08:03:09;63.85;;;26.73;;
26082;SDS011;13848;49.018;12.078;2024-03-02T08:05:35;61.92;;;26.05;;
26082;SDS011;13848;49.018;12.078;2024-03-02T08:08:01;63.78;;;26.90;;
26082;SDS011;13848;49.018;12.078;2024-03-02T08:10:27;54.95;;;25.88;;
26082;SDS011;13848;49.018;12.078;2024-03-02T08:12:52;55.28;;;25.85;;
26082;SDS011;13848;49.018;12.078;2024-03-02T08:15:18;61.80;;;25.80;;
26082;SDS011;13848;49.018;12.078;2024-03-02T08:17:44;58.13;;;26.05;;
26082;SDS011;13848;49.018;12.078;2024-03-02T08:20:12;59.35;;;25.98;;
26082;SDS011;13848;49.018;12.078;2024-03-02T08:22:38;60.28;;;25.75;;
26082;SDS011;13848;49.018;12.078;2024-03-02T08:25:05;56.05;;;25.10;;
26082;SDS011;13848;49.018;12.078;2024-03-02T08:27:32;58.30;;;25.75;;
26082;SDS011;13848;49.018;12.078;2024-03-02T08:29:58;58.08;;;24.95;;
26082;SDS011;13848;49.018;12.078;2024-03-02T08:32:24;59.83;;;24.92;;
26082;SDS011;13848;49.018;12.078;2024-03-02T08:34:49;58.30;;;25.33;;
26082;SDS011;13848;49.018;12.078;2024-03-02T08:37:17;53.65;;;24.95;;
26082;SDS011;13848;49.018;12.078;2024-03-02T08:39:43;55.05;;;25.42;;
26082;SDS011;13848;49.018;12.078;2024-03-02T08:42:10;58.75;;;25.30;;
26082;SDS011;13848;49.018;12.078;2024-03-02T08:44:36;59.97;;;26.00;;
26082;SDS011;13848;49.018;12.078;2024-03-02T08:47:03;53.15;;;24.40;;
26082;SDS011;13848;49.018;12.078;2024-03-02T08:49:29;58.47;;;26.02;;
26082;SDS011;13848;49.018;12.078;2024-03-02T08:51:55;52.30;;;24.92;;
26082;SDS011;13848;49.018;12.078;2024-03-02T08:54:22;51.20;;;25.45;;
26082;SDS011;13848;49.018;12.078;2024-03-02T08:56:48;59.45;;;26.50;;
26082;SDS011;13848;49.018;12.078;2024-03-02T08:59:14;52.85;;;24.48;;
26082;SDS011;13848;49.018;12.078;2024-03-02T09:01:40;51.85;;;24.35;;
26082;SDS011;13848;49.018;12.078;2024-03-02T09:04:06;49.97;;;23.48;;
26082;SDS011;13848;49.018;12.078;2024-03-02T09:06:32;53.95;;;23.40;;
26082;SDS011;13848;49.018;12.078;2024-03-02T09:08:58;47.83;;;23.45;;
26082;SDS011;13848;49.018;12.078;2024-03-02T09:11:25;52.67;;;24.33;;
26082;SDS011;13848;49.018;12.078;2024-03-02T09:13:51;53.22;;;22.48;;
26082;SDS011;13848;49.018;12.078;2024-03-02T09:16:18;54.30;;;24.02;;
26082;SDS011;13848;49.018;12.078;2024-03-02T09:18:44;57.83;;;25.65;;
26082;SDS011;13848;49.018;12.078;2024-03-02T09:21:10;58.22;;;26.35;;
26082;SDS011;13848;49.018;12.078;2024-03-02T09:23:35;61.10;;;26.67;;
26082;SDS011;13848;49.018;12.078;2024-03-02T09:26:01;55.28;;;26.42;;
26082;SDS011;13848;49.018;12.078;2024-03-02T09:28:29;54.42;;;26.27;;
26082;SDS011;13848;49.018;12.078;2024-03-02T09:30:55;54.03;;;25.23;;
26082;SDS011;13848;49.018;12.078;2024-03-02T09:33:21;55.22;;;26.27;;
26082;SDS011;13848;49.018;12.078;2024-03-02T09:35:47;48.05;;;25.08;;
26082;SDS011;13848;49.018;12.078;2024-03-02T09:38:13;56.45;;;25.17;;
26082;SDS011;13848;49.018;12.078;2024-03-02T09:40:39;49.25;;;23.75;;
26082;SDS011;13848;49.018;12.078;2024-03-02T09:43:07;46.85;;;22.98;;
26082;SDS011;13848;49.018;12.078;2024-03-02T09:45:34;46.58;;;23.63;;
26082;SDS011;13848;49.018;12.078;2024-03-02T09:48:01;49.97;;;23.73;;
26082;SDS011;13848;49.018;12.078;2024-03-02T09:50:27;49.25;;;23.80;;
26082;SDS011;13848;49.018;12.078;2024-03-02T09:52:53;47.10;;;23.88;;
26082;SDS011;13848;49.018;12.078;2024-03-02T09:55:19;48.38;;;23.73;;
26082;SDS011;13848;49.018;12.078;2024-03-02T09:57:45;47.08;;;22.90;;
26082;SDS011;13848;49.018;12.078;2024-03-02T10:00:12;46.55;;;23.02;;
26082;SDS011;13848;49.018;12.078;2024-03-02T10:02:40;50.13;;;22.63;;
26082;SDS011;13848;49.018;12.078;2024-03-02T10:05:06;49.45;;;23.25;;
26082;SDS011;13848;49.018;12.078;2024-03-02T10:07:32;48.17;;;22.10;;
26082;SDS011;13848;49.018;12.078;2024-03-02T10:09:58;44.75;;;22.95;;
26082;SDS011;13848;49.018;12.078;2024-03-02T10:12:38;42.83;;;21.58;;
26082;SDS011;13848;49.018;12.078;2024-03-02T10:15:04;43.85;;;22.17;;
26082;SDS011;13848;49.018;12.078;2024-03-02T10:17:31;43.00;;;20.55;;
26082;SDS011;13848;49.018;12.078;2024-03-02T10:19:58;45.80;;;20.88;;
26082;SDS011;13848;49.018;12.078;2024-03-02T10:22:24;43.53;;;20.98;;
26082;SDS011;13848;49.018;12.078;2024-03-02T10:24:50;39.95;;;20.08;;
26082;SDS011;13848;49.018;12.078;2024-03-02T10:27:16;42.65;;;21.48;;
26082;SDS011;13848;49.018;12.078;2024-03-02T10:29:45;38.42;;;20.65;;
26082;SDS011;13848;49.018;12.078;2024-03-02T10:32:12;42.30;;;21.67;;
26082;SDS011;13848;49.018;12.078;2024-03-02T10:34:39;37.63;;;19.63;;
26082;SDS011;13848;49.018;12.078;2024-03-02T10:37:07;41.13;;;20.40;;
26082;SDS011;13848;49.018;12.078;2024-03-02T10:39:34;41.45;;;19.02;;
26082;SDS011;13848;49.018;12.078;2024-03-02T10:42:00;39.15;;;19.17;;
26082;SDS011;13848;49.018;12.078;2024-03-02T10:44:28;44.80;;;20.00;;
26082;SDS011;13848;49.018;12.078;2024-03-02T10:46:55;42.38;;;18.17;;
26082;SDS011;13848;49.018;12.078;2024-03-02T10:49:22;37.95;;;18.60;;
26082;SDS011;13848;49.018;12.078;2024-03-02T10:51:49;39.28;;;18.42;;
26082;SDS011;13848;49.018;12.078;2024-03-02T10:54:16;37.25;;;16.90;;
26082;SDS011;13848;49.018;12.078;2024-03-02T10:56:43;39.67;;;18.85;;
26082;SDS011;13848;49.018;12.078;2024-03-02T10:59:12;37.05;;;17.45;;
26082;SDS011;13848;49.018;12.078;2024-03-02T11:01:42;38.88;;;17.77;;
26082;SDS011;13848;49.018;12.078;2024-03-02T11:04:09;32.38;;;17.08;;
26082;SDS011;13848;49.018;12.078;2024-03-02T11:06:37;36.97;;;18.95;;
26082;SDS011;13848;49.018;12.078;2024-03-02T11:09:05;35.42;;;17.38;;
26082;SDS011;13848;49.018;12.078;2024-03-02T11:11:35;38.72;;;16.85;;
26082;SDS011;13848;49.018;12.078;2024-03-02T11:14:04;36.05;;;17.90;;
26082;SDS011;13848;49.018;12.078;2024-03-02T11:16:33;36.83;;;18.50;;
26082;SDS011;13848;49.018;12.078;2024-03-02T11:19:01;36.13;;;17.08;;
26082;SDS011;13848;49.018;12.078;2024-03-02T11:21:29;41.65;;;18.25;;
26082;SDS011;13848;49.018;12.078;2024-03-02T11:23:55;37.85;;;17.13;;
26082;SDS011;13848;49.018;12.078;2024-03-02T11:26:21;34.33;;;16.50;;
26082;SDS011;13848;49.018;12.078;2024-03-02T11:28:49;36.60;;;17.13;;
26082;SDS011;13848;49.018;12.078;2024-03-02T11:31:15;34.58;;;17.58;;
26082;SDS011;13848;49.018;12.078;2024-03-02T11:33:41;38.05;;;18.13;;
26082;SDS011;13848;49.018;12.078;2024-03-02T11:36:07;31.90;;;16.30;;
26082;SDS011;13848;49.018;12.078;2024-03-02T11:38:33;36.38;;;17.35;;
26082;SDS011;13848;49.018;12.078;2024-03-02T11:41:00;36.67;;;18.58;;
26082;SDS011;13848;49.018;12.078;2024-03-02T11:43:27;33.13;;;16.88;;
26082;SDS011;13848;49.018;12.078;2024-03-02T11:45:58;36.65;;;17.60;;
26082;SDS011;13848;49.018;12.078;2024-03-02T11:48:25;31.85;;;15.88;;
26082;SDS011;13848;49.018;12.078;2024-03-02T11:50:51;30.83;;;15.60;;
26082;SDS011;13848;49.018;12.078;2024-03-02T11:53:18;37.78;;;16.90;;
26082;SDS011;13848;49.018;12.078;2024-03-02T11:55:45;33.42;;;15.98;;
26082;SDS011;13848;49.018;12.078;2024-03-02T11:58:11;33.17;;;16.13;;
26082;SDS011;13848;49.018;12.078;2024-03-02T12:00:38;34.10;;;16.20;;
26082;SDS011;13848;49.018;12.078;2024-03-02T12:03:06;30.60;;;16.23;;
26082;SDS011;13848;49.018;12.078;2024-03-02T12:05:33;27.92;;;15.45;;
26082;SDS011;13848;49.018;12.078;2024-03-02T12:08:00;28.10;;;15.10;;
26082;SDS011;13848;49.018;12.078;2024-03-02T12:10:27;35.97;;;16.38;;
26082;SDS011;13848;49.018;12.078;2024-03-02T12:12:56;31.05;;;15.90;;
26082;SDS011;13848;49.018;12.078;2024-03-02T12:15:23;32.03;;;16.17;;
26082;SDS011;13848;49.018;12.078;2024-03-02T12:17:52;31.17;;;15.25;;
26082;SDS011;13848;49.018;12.078;2024-03-02T12:20:20;29.98;;;15.27;;
26082;SDS011;13848;49.018;12.078;2024-03-02T12:22:46;27.45;;;15.23;;
26082;SDS011;13848;49.018;12.078;2024-03-02T12:25:13;29.35;;;16.25;;
26082;SDS011;13848;49.018;12.078;2024-03-02T12:27:39;35.70;;;16.65;;
26082;SDS011;13848;49.018;12.078;2024-03-02T12:30:06;27.20;;;14.75;;
26082;SDS011;13848;49.018;12.078;2024-03-02T12:32:32;28.60;;;15.88;;
26082;SDS011;13848;49.018;12.078;2024-03-02T12:34:58;27.83;;;14.68;;
26082;SDS011;13848;49.018;12.078;2024-03-02T12:37:25;31.70;;;15.80;;
26082;SDS011;13848;49.018;12.078;2024-03-02T12:39:52;30.40;;;16.17;;
26082;SDS011;13848;49.018;12.078;2024-03-02T12:42:18;27.90;;;14.63;;
26082;SDS011;13848;49.018;12.078;2024-03-02T12:44:44;30.30;;;15.45;;
26082;SDS011;13848;49.018;12.078;2024-03-02T12:47:10;28.42;;;15.40;;
26082;SDS011;13848;49.018;12.078;2024-03-02T12:49:37;32.00;;;15.63;;
26082;SDS011;13848;49.018;12.078;2024-03-02T12:52:05;31.10;;;15.45;;
26082;SDS011;13848;49.018;12.078;2024-03-02T12:54:32;27.60;;;15.18;;
26082;SDS011;13848;49.018;12.078;2024-03-02T12:56:59;28.48;;;16.38;;
26082;SDS011;13848;49.018;12.078;2024-03-02T12:59:25;27.23;;;15.57;;
26082;SDS011;13848;49.018;12.078;2024-03-02T13:01:51;28.05;;;15.43;;
26082;SDS011;13848;49.018;12.078;2024-03-02T13:04:21;27.05;;;15.25;;
26082;SDS011;13848;49.018;12.078;2024-03-02T13:06:47;27.30;;;14.80;;
26082;SDS011;13848;49.018;12.078;2024-03-02T13:09:13;28.30;;;15.10;;
26082;SDS011;13848;49.018;12.078;2024-03-02T13:11:42;29.42;;;15.30;;
26082;SDS011;13848;49.018;12.078;2024-03-02T13:14:08;27.85;;;16.13;;
26082;SDS011;13848;49.018;12.078;2024-03-02T13:16:38;25.00;;;14.90;;
26082;SDS011;13848;49.018;12.078;2024-03-02T13:19:04;25.55;;;15.15;;
26082;SDS011;13848;49.018;12.078;2024-03-02T13:21:32;29.10;;;15.32;;
26082;SDS011;13848;49.018;12.078;2024-03-02T13:23:58;25.58;;;13.52;;
26082;SDS011;13848;49.018;12.078;2024-03-02T13:26:24;28.83;;;15.27;;
26082;SDS011;13848;49.018;12.078;2024-03-02T13:28:51;30.15;;;15.25;;
26082;SDS011;13848;49.018;12.078;2024-03-02T13:31:17;27.25;;;14.00;;
26082;SDS011;13848;49.018;12.078;2024-03-02T13:33:43;28.40;;;15.50;;
26082;SDS011;13848;49.018;12.078;2024-03-02T13:36:09;25.70;;;14.50;;
26082;SDS011;13848;49.018;12.078;2024-03-02T13:38:35;26.38;;;14.20;;
26082;SDS011;13848;49.018;12.078;2024-03-02T13:41:01;24.92;;;14.10;;
26082;SDS011;13848;49.018;12.078;2024-03-02T13:43:27;23.00;;;13.55;;
26082;SDS011;13848;49.018;12.078;2024-03-02T13:45:55;26.80;;;14.20;;
26082;SDS011;13848;49.018;12.078;2024-03-02T13:48:21;24.40;;;14.18;;
26082;SDS011;13848;49.018;12.078;2024-03-02T13:50:47;28.70;;;14.77;;
26082;SDS011;13848;49.018;12.078;2024-03-02T13:53:13;29.40;;;14.90;;
26082;SDS011;13848;49.018;12.078;2024-03-02T13:55:39;23.00;;;13.80;;
26082;SDS011;13848;49.018;12.078;2024-03-02T13:58:04;25.25;;;13.13;;
26082;SDS011;13848;49.018;12.078;2024-03-02T14:00:30;26.88;;;14.45;;
26082;SDS011;13848;49.018;12.078;2024-03-02T14:02:58;27.15;;;14.70;;